sensor_id;sensor_type;location;lat;lon;timestamp;P1;durP1;ratioP1;P2;durP2;ratioP2
81801;SDS011;71199;52.490;5.448;2024-03-29T00:00:24;3.90;;;1.23;;
81801;SDS011;71199;52.490;5.448;2024-03-29T00:02:49;3.67;;;1.05;;
81801;SDS011;71199;52.490;5.448;2024-03-29T00:05:15;5.70;;;1.87;;
81801;SDS011;71199;52.490;5.448;2024-03-29T00:07:40;8.18;;;2.47;;
81801;SDS011;71199;52.490;5.448;2024-03-29T00:10:06;6.87;;;1.40;;
81801;SDS011;71199;52.490;5.448;2024-03-29T00:12:31;4.47;;;1.50;;
81801;SDS011;71199;52.490;5.448;2024-03-29T00:14:56;6.33;;;1.20;;
81801;SDS011;71199;52.490;5.448;2024-03-29T00:17:22;3.83;;;1.20;;
81801;SDS011;71199;52.490;5.448;2024-03-29T00:19:47;3.73;;;1.30;;
81801;SDS011;71199;52.490;5.448;2024-03-29T00:22:13;4.70;;;1.50;;
81801;SDS011;71199;52.490;5.448;2024-03-29T00:24:38;4.10;;;1.20;;
81801;SDS011;71199;52.490;5.448;2024-03-29T00:27:03;3.63;;;0.97;;
81801;SDS011;71199;52.490;5.448;2024-03-29T00:29:29;5.85;;;1.77;;
81801;SDS011;71199;52.490;5.448;2024-03-29T00:31:55;6.03;;;1.45;;
81801;SDS011;71199;52.490;5.448;2024-03-29T00:34:20;4.45;;;1.08;;
81801;SDS011;71199;52.490;5.448;2024-03-29T00:36:45;12.67;;;1.70;;
81801;SDS011;71199;52.490;5.448;2024-03-29T00:39:11;4.85;;;1.20;;
81801;SDS011;71199;52.490;5.448;2024-03-29T00:41:36;7.32;;;1.40;;
81801;SDS011;71199;52.490;5.448;2024-03-29T00:44:02;9.88;;;1.67;;
81801;SDS011;71199;52.490;5.448;2024-03-29T00:46:28;3.22;;;1.02;;
81801;SDS011;71199;52.490;5.448;2024-03-29T00:48:53;5.78;;;1.60;;
81801;SDS011;71199;52.490;5.448;2024-03-29T00:51:19;3.55;;;1.23;;
81801;SDS011;71199;52.490;5.448;2024-03-29T00:53:44;4.83;;;1.20;;
81801;SDS011;71199;52.490;5.448;2024-03-29T00:56:10;3.90;;;1.23;;
81801;SDS011;71199;52.490;5.448;2024-03-29T00:58:35;3.57;;;1.27;;
81801;SDS011;71199;52.490;5.448;2024-03-29T01:01:00;6.47;;;1.48;;
81801;SDS011;71199;52.490;5.448;2024-03-29T01:03:26;4.10;;;1.73;;
81801;SDS011;71199;52.490;5.448;2024-03-29T01:05:54;9.52;;;2.33;;
81801;SDS011;71199;52.490;5.448;2024-03-29T01:08:19;5.55;;;1.83;;
81801;SDS011;71199;52.490;5.448;2024-03-29T01:10:45;11.27;;;1.75;;
81801;SDS011;71199;52.490;5.448;2024-03-29T01:13:11;5.68;;;1.55;;
81801;SDS011;71199;52.490;5.448;2024-03-29T01:15:36;7.20;;;2.10;;
81801;SDS011;71199;52.490;5.448;2024-03-29T01:18:02;9.63;;;1.50;;
81801;SDS011;71199;52.490;5.448;2024-03-29T01:20:27;6.35;;;1.67;;
81801;SDS011;71199;52.490;5.448;2024-03-29T01:22:52;3.37;;;1.40;;
81801;SDS011;71199;52.490;5.448;2024-03-29T01:25:18;5.50;;;1.50;;
81801;SDS011;71199;52.490;5.448;2024-03-29T01:27:43;5.77;;;1.20;;
81801;SDS011;71199;52.490;5.448;2024-03-29T01:30:09;9.35;;;1.35;;
81801;SDS011;71199;52.490;5.448;2024-03-29T01:32:34;4.78;;;1.48;;
81801;SDS011;71199;52.490;5.448;2024-03-29T01:35:00;5.40;;;1.50;;
81801;SDS011;71199;52.490;5.448;2024-03-29T01:37:25;2.80;;;1.07;;
81801;SDS011;71199;52.490;5.448;2024-03-29T01:39:51;6.13;;;1.63;;
81801;SDS011;71199;52.490;5.448;2024-03-29T01:42:16;4.63;;;1.30;;
81801;SDS011;71199;52.490;5.448;2024-03-29T01:44:42;5.70;;;1.60;;
81801;SDS011;71199;52.490;5.448;2024-03-29T01:47:07;10.05;;;2.22;;
81801;SDS011;71199;52.490;5.448;2024-03-29T01:49:33;3.63;;;1.55;;
81801;SDS011;71199;52.490;5.448;2024-03-29T01:51:59;3.25;;;1.42;;
81801;SDS011;71199;52.490;5.448;2024-03-29T01:54:25;6.32;;;1.30;;
81801;SDS011;71199;52.490;5.448;2024-03-29T01:56:50;5.90;;;1.75;;
81801;SDS011;71199;52.490;5.448;2024-03-29T01:59:17;8.00;;;1.90;;
81801;SDS011;71199;52.490;5.448;2024-03-29T02:01:44;5.57;;;1.05;;
81801;SDS011;71199;52.490;5.448;2024-03-29T02:04:10;8.43;;;1.85;;
81801;SDS011;71199;52.490;5.448;2024-03-29T02:06:39;6.75;;;1.58;;
81801;SDS011;71199;52.490;5.448;2024-03-29T02:09:04;4.97;;;1.50;;
81801;SDS011;71199;52.490;5.448;2024-03-29T02:11:30;6.38;;;1.60;;
81801;SDS011;71199;52.490;5.448;2024-03-29T02:13:56;3.65;;;1.67;;
81801;SDS011;71199;52.490;5.448;2024-03-29T02:16:22;4.85;;;1.45;;
81801;SDS011;71199;52.490;5.448;2024-03-29T02:18:47;2.60;;;1.10;;
81801;SDS011;71199;52.490;5.448;2024-03-29T02:21:12;6.67;;;1.50;;
81801;SDS011;71199;52.490;5.448;2024-03-29T02:23:40;5.20;;;1.47;;
81801;SDS011;71199;52.490;5.448;2024-03-29T02:26:08;8.30;;;1.58;;
81801;SDS011;71199;52.490;5.448;2024-03-29T02:28:35;3.22;;;1.23;;
81801;SDS011;71199;52.490;5.448;2024-03-29T02:31:00;3.43;;;1.13;;
81801;SDS011;71199;52.490;5.448;2024-03-29T02:33:26;8.95;;;1.63;;
81801;SDS011;71199;52.490;5.448;2024-03-29T02:35:51;5.57;;;1.53;;
81801;SDS011;71199;52.490;5.448;2024-03-29T02:38:16;5.00;;;1.40;;
81801;SDS011;71199;52.490;5.448;2024-03-29T02:40:42;3.40;;;1.50;;
81801;SDS011;71199;52.490;5.448;2024-03-29T02:43:07;4.67;;;1.50;;
81801;SDS011;71199;52.490;5.448;2024-03-29T02:45:32;6.53;;;1.40;;
81801;SDS011;71199;52.490;5.448;2024-03-29T02:47:58;6.80;;;1.27;;
81801;SDS011;71199;52.490;5.448;2024-03-29T02:50:23;6.20;;;1.67;;
81801;SDS011;71199;52.490;5.448;2024-03-29T02:52:48;6.27;;;1.53;;
81801;SDS011;71199;52.490;5.448;2024-03-29T02:55:14;3.83;;;1.67;;
81801;SDS011;71199;52.490;5.448;2024-03-29T02:57:39;6.65;;;1.70;;
81801;SDS011;71199;52.490;5.448;2024-03-29T03:00:05;8.95;;;1.48;;
81801;SDS011;71199;52.490;5.448;2024-03-29T03:02:32;4.50;;;1.20;;
81801;SDS011;71199;52.490;5.448;2024-03-29T03:04:57;4.82;;;1.52;;
81801;SDS011;71199;52.490;5.448;2024-03-29T03:07:24;3.60;;;1.52;;
81801;SDS011;71199;52.490;5.448;2024-03-29T03:10:08;5.25;;;1.75;;
81801;SDS011;71199;52.490;5.448;2024-03-29T03:12:52;4.90;;;1.60;;
81801;SDS011;71199;52.490;5.448;2024-03-29T03:15:17;3.37;;;1.27;;
81801;SDS011;71199;52.490;5.448;2024-03-29T03:17:43;3.77;;;1.50;;
81801;SDS011;71199;52.490;5.448;2024-03-29T03:20:08;6.03;;;1.57;;
81801;SDS011;71199;52.490;5.448;2024-03-29T03:22:34;3.75;;;1.58;;
81801;SDS011;71199;52.490;5.448;2024-03-29T03:25:00;5.80;;;1.85;;
81801;SDS011;71199;52.490;5.448;2024-03-29T03:27:25;6.43;;;1.73;;
81801;SDS011;71199;52.490;5.448;2024-03-29T03:29:50;4.87;;;1.50;;
81801;SDS011;71199;52.490;5.448;2024-03-29T03:32:16;4.53;;;1.40;;
81801;SDS011;71199;52.490;5.448;2024-03-29T03:34:41;4.33;;;1.40;;
81801;SDS011;71199;52.490;5.448;2024-03-29T03:37:06;7.07;;;1.75;;
81801;SDS011;71199;52.490;5.448;2024-03-29T03:39:32;7.17;;;2.30;;
81801;SDS011;71199;52.490;5.448;2024-03-29T03:41:57;3.20;;;1.40;;
81801;SDS011;71199;52.490;5.448;2024-03-29T03:44:22;4.00;;;1.77;;
81801;SDS011;71199;52.490;5.448;2024-03-29T03:46:50;10.57;;;3.05;;
81801;SDS011;71199;52.490;5.448;2024-03-29T03:49:18;4.35;;;1.17;;
81801;SDS011;71199;52.490;5.448;2024-03-29T03:51:43;5.67;;;1.50;;
81801;SDS011;71199;52.490;5.448;2024-03-29T03:54:09;5.90;;;1.37;;
81801;SDS011;71199;52.490;5.448;2024-03-29T03:56:34;6.23;;;1.30;;
81801;SDS011;71199;52.490;5.448;2024-03-29T03:58:59;6.00;;;1.27;;
81801;SDS011;71199;52.490;5.448;2024-03-29T04:01:25;6.50;;;1.37;;
81801;SDS011;71199;52.490;5.448;2024-03-29T04:03:50;2.90;;;1.17;;
81801;SDS011;71199;52.490;5.448;2024-03-29T04:06:15;4.53;;;1.10;;
81801;SDS011;71199;52.490;5.448;2024-03-29T04:08:43;4.72;;;1.08;;
81801;SDS011;71199;52.490;5.448;2024-03-29T04:11:09;4.22;;;1.30;;
81801;SDS011;71199;52.490;5.448;2024-03-29T04:13:34;4.10;;;1.23;;
81801;SDS011;71199;52.490;5.448;2024-03-29T04:16:04;2.83;;;1.10;;
81801;SDS011;71199;52.490;5.448;2024-03-29T04:18:31;6.63;;;1.30;;
81801;SDS011;71199;52.490;5.448;2024-03-29T04:20:57;5.15;;;1.27;;
81801;SDS011;71199;52.490;5.448;2024-03-29T04:23:23;2.47;;;1.00;;
81801;SDS011;71199;52.490;5.448;2024-03-29T04:26:07;4.72;;;1.50;;
81801;SDS011;71199;52.490;5.448;2024-03-29T04:28:32;3.10;;;1.20;;
81801;SDS011;71199;52.490;5.448;2024-03-29T04:30:58;2.47;;;1.20;;
81801;SDS011;71199;52.490;5.448;2024-03-29T04:33:26;9.68;;;1.50;;
81801;SDS011;71199;52.490;5.448;2024-03-29T04:35:56;3.35;;;1.30;;
81801;SDS011;71199;52.490;5.448;2024-03-29T04:38:26;7.07;;;1.50;;
81801;SDS011;71199;52.490;5.448;2024-03-29T04:40:52;2.42;;;1.05;;
81801;SDS011;71199;52.490;5.448;2024-03-29T04:43:20;3.67;;;1.60;;
81801;SDS011;71199;52.490;5.448;2024-03-29T04:45:47;4.68;;;1.33;;
81801;SDS011;71199;52.490;5.448;2024-03-29T04:48:12;5.80;;;1.40;;
81801;SDS011;71199;52.490;5.448;2024-03-29T04:50:38;5.47;;;1.35;;
81801;SDS011;71199;52.490;5.448;2024-03-29T04:53:04;4.28;;;1.42;;
81801;SDS011;71199;52.490;5.448;2024-03-29T04:55:29;2.38;;;1.02;;
81801;SDS011;71199;52.490;5.448;2024-03-29T04:57:55;3.85;;;1.15;;
81801;SDS011;71199;52.490;5.448;2024-03-29T05:00:20;4.22;;;1.25;;
81801;SDS011;71199;52.490;5.448;2024-03-29T05:02:45;2.33;;;1.00;;
81801;SDS011;71199;52.490;5.448;2024-03-29T05:05:11;2.40;;;0.67;;
81801;SDS011;71199;52.490;5.448;2024-03-29T05:07:36;3.80;;;1.30;;
81801;SDS011;71199;52.490;5.448;2024-03-29T05:10:01;5.83;;;1.30;;
81801;SDS011;71199;52.490;5.448;2024-03-29T05:12:31;3.22;;;1.10;;
81801;SDS011;71199;52.490;5.448;2024-03-29T05:14:57;3.47;;;1.20;;
81801;SDS011;71199;52.490;5.448;2024-03-29T05:17:22;2.80;;;1.10;;
81801;SDS011;71199;52.490;5.448;2024-03-29T05:19:50;2.38;;;0.85;;
81801;SDS011;71199;52.490;5.448;2024-03-29T05:22:16;4.30;;;1.95;;
81801;SDS011;71199;52.490;5.448;2024-03-29T05:24:41;3.87;;;0.83;;
81801;SDS011;71199;52.490;5.448;2024-03-29T05:27:06;3.90;;;1.00;;
81801;SDS011;71199;52.490;5.448;2024-03-29T05:29:32;2.93;;;1.00;;
81801;SDS011;71199;52.490;5.448;2024-03-29T05:31:57;3.80;;;1.30;;
81801;SDS011;71199;52.490;5.448;2024-03-29T05:34:22;2.43;;;0.93;;
81801;SDS011;71199;52.490;5.448;2024-03-29T05:36:48;7.03;;;0.95;;
81801;SDS011;71199;52.490;5.448;2024-03-29T05:39:13;2.73;;;1.00;;
81801;SDS011;71199;52.490;5.448;2024-03-29T05:41:40;2.15;;;0.75;;
81801;SDS011;71199;52.490;5.448;2024-03-29T05:44:06;3.65;;;1.00;;
81801;SDS011;71199;52.490;5.448;2024-03-29T05:46:31;2.10;;;0.70;;
81801;SDS011;71199;52.490;5.448;2024-03-29T05:48:57;3.40;;;1.03;;
81801;SDS011;71199;52.490;5.448;2024-03-29T05:51:22;2.97;;;1.15;;
81801;SDS011;71199;52.490;5.448;2024-03-29T05:53:47;3.93;;;0.90;;
81801;SDS011;71199;52.490;5.448;2024-03-29T05:56:13;5.10;;;1.13;;
81801;SDS011;71199;52.490;5.448;2024-03-29T05:58:38;4.45;;;0.90;;
81801;SDS011;71199;52.490;5.448;2024-03-29T06:01:03;4.05;;;0.50;;
81801;SDS011;71199;52.490;5.448;2024-03-29T06:03:29;2.30;;;0.52;;
81801;SDS011;71199;52.490;5.448;2024-03-29T06:05:55;4.97;;;0.73;;
81801;SDS011;71199;52.490;5.448;2024-03-29T06:08:20;2.90;;;0.68;;
81801;SDS011;71199;52.490;5.448;2024-03-29T06:10:46;2.33;;;0.80;;
81801;SDS011;71199;52.490;5.448;2024-03-29T06:13:11;5.30;;;0.85;;
81801;SDS011;71199;52.490;5.448;2024-03-29T06:15:53;2.33;;;0.65;;
81801;SDS011;71199;52.490;5.448;2024-03-29T06:18:54;3.08;;;0.90;;
81801;SDS011;71199;52.490;5.448;2024-03-29T06:21:19;3.13;;;0.70;;
81801;SDS011;71199;52.490;5.448;2024-03-29T06:23:44;2.20;;;0.80;;
81801;SDS011;71199;52.490;5.448;2024-03-29T06:26:10;3.80;;;0.60;;
81801;SDS011;71199;52.490;5.448;2024-03-29T06:28:35;2.43;;;0.50;;
81801;SDS011;71199;52.490;5.448;2024-03-29T06:31:00;1.83;;;0.73;;
81801;SDS011;71199;52.490;5.448;2024-03-29T06:33:27;3.47;;;0.90;;
81801;SDS011;71199;52.490;5.448;2024-03-29T06:35:53;4.47;;;1.13;;
81801;SDS011;71199;52.490;5.448;2024-03-29T06:38:19;3.45;;;1.00;;
81801;SDS011;71199;52.490;5.448;2024-03-29T06:40:45;4.50;;;1.40;;
81801;SDS011;71199;52.490;5.448;2024-03-29T06:43:11;4.45;;;1.10;;
81801;SDS011;71199;52.490;5.448;2024-03-29T06:45:39;3.45;;;0.95;;
81801;SDS011;71199;52.490;5.448;2024-03-29T06:48:07;4.72;;;1.40;;
81801;SDS011;71199;52.490;5.448;2024-03-29T06:50:33;2.97;;;1.10;;
81801;SDS011;71199;52.490;5.448;2024-03-29T06:52:58;3.83;;;1.07;;
81801;SDS011;71199;52.490;5.448;2024-03-29T06:55:23;5.87;;;1.00;;
81801;SDS011;71199;52.490;5.448;2024-03-29T06:57:48;5.20;;;1.13;;
81801;SDS011;71199;52.490;5.448;2024-03-29T07:00:14;4.03;;;1.27;;
81801;SDS011;71199;52.490;5.448;2024-03-29T07:02:39;3.95;;;0.95;;
81801;SDS011;71199;52.490;5.448;2024-03-29T07:05:05;4.90;;;1.40;;
81801;SDS011;71199;52.490;5.448;2024-03-29T07:07:32;3.67;;;1.30;;
81801;SDS011;71199;52.490;5.448;2024-03-29T07:09:58;2.20;;;0.82;;
81801;SDS011;71199;52.490;5.448;2024-03-29T07:12:23;4.33;;;1.27;;
81801;SDS011;71199;52.490;5.448;2024-03-29T07:14:48;3.20;;;1.13;;
81801;SDS011;71199;52.490;5.448;2024-03-29T07:17:14;1.97;;;0.77;;
81801;SDS011;71199;52.490;5.448;2024-03-29T07:19:39;3.13;;;0.90;;
81801;SDS011;71199;52.490;5.448;2024-03-29T07:22:04;3.47;;;0.88;;
81801;SDS011;71199;52.490;5.448;2024-03-29T07:24:30;2.72;;;1.10;;
81801;SDS011;71199;52.490;5.448;2024-03-29T07:26:55;3.33;;;1.17;;
81801;SDS011;71199;52.490;5.448;2024-03-29T07:29:21;2.13;;;1.00;;
81801;SDS011;71199;52.490;5.448;2024-03-29T07:31:46;2.87;;;1.30;;
81801;SDS011;71199;52.490;5.448;2024-03-29T07:34:11;3.13;;;1.37;;
81801;SDS011;71199;52.490;5.448;2024-03-29T07:36:37;2.38;;;0.95;;
81801;SDS011;71199;52.490;5.448;2024-03-29T07:39:02;3.40;;;1.20;;
81801;SDS011;71199;52.490;5.448;2024-03-29T07:41:29;2.25;;;1.00;;
81801;SDS011;71199;52.490;5.448;2024-03-29T07:43:55;2.15;;;1.10;;
81801;SDS011;71199;52.490;5.448;2024-03-29T07:46:33;3.05;;;0.95;;
81801;SDS011;71199;52.490;5.448;2024-03-29T07:49:00;2.10;;;0.82;;
81801;SDS011;71199;52.490;5.448;2024-03-29T07:51:26;2.05;;;0.82;;
81801;SDS011;71199;52.490;5.448;2024-03-29T07:53:51;1.90;;;0.57;;
81801;SDS011;71199;52.490;5.448;2024-03-29T07:56:17;3.83;;;0.80;;
81801;SDS011;71199;52.490;5.448;2024-03-29T07:58:43;2.83;;;0.80;;
81801;SDS011;71199;52.490;5.448;2024-03-29T08:01:09;5.57;;;1.38;;
81801;SDS011;71199;52.490;5.448;2024-03-29T08:03:34;3.13;;;1.02;;
81801;SDS011;71199;52.490;5.448;2024-03-29T08:06:01;3.22;;;1.23;;
81801;SDS011;71199;52.490;5.448;2024-03-29T08:08:31;3.53;;;1.08;;
81801;SDS011;71199;52.490;5.448;2024-03-29T08:10:57;2.70;;;1.05;;
81801;SDS011;71199;52.490;5.448;2024-03-29T08:13:23;2.28;;;0.90;;
81801;SDS011;71199;52.490;5.448;2024-03-29T08:15:50;3.33;;;1.05;;
81801;SDS011;71199;52.490;5.448;2024-03-29T08:18:24;2.30;;;0.60;;
81801;SDS011;71199;52.490;5.448;2024-03-29T08:20:50;2.40;;;0.90;;
81801;SDS011;71199;52.490;5.448;2024-03-29T08:23:15;2.42;;;1.00;;
81801;SDS011;71199;52.490;5.448;2024-03-29T08:25:40;3.00;;;1.10;;
81801;SDS011;71199;52.490;5.448;2024-03-29T08:28:06;2.63;;;1.27;;
81801;SDS011;71199;52.490;5.448;2024-03-29T08:30:31;3.10;;;0.87;;
81801;SDS011;71199;52.490;5.448;2024-03-29T08:33:03;5.10;;;1.05;;
81801;SDS011;71199;52.490;5.448;2024-03-29T08:35:35;1.85;;;0.73;;
81801;SDS011;71199;52.490;5.448;2024-03-29T08:38:00;4.60;;;1.42;;
81801;SDS011;71199;52.490;5.448;2024-03-29T08:40:27;2.95;;;1.10;;
81801;SDS011;71199;52.490;5.448;2024-03-29T08:42:54;4.72;;;1.20;;
81801;SDS011;71199;52.490;5.448;2024-03-29T08:45:21;1.90;;;0.75;;
81801;SDS011;71199;52.490;5.448;2024-03-29T08:47:46;2.60;;;0.90;;
81801;SDS011;71199;52.490;5.448;2024-03-29T08:50:12;2.20;;;0.90;;
81801;SDS011;71199;52.490;5.448;2024-03-29T08:52:38;3.25;;;0.65;;
81801;SDS011;71199;52.490;5.448;2024-03-29T08:55:04;1.60;;;0.47;;
81801;SDS011;71199;52.490;5.448;2024-03-29T08:57:31;1.75;;;0.90;;
81801;SDS011;71199;52.490;5.448;2024-03-29T08:59:56;1.97;;;0.73;;
81801;SDS011;71199;52.490;5.448;2024-03-29T09:02:21;3.20;;;0.80;;
81801;SDS011;71199;52.490;5.448;2024-03-29T09:04:47;1.77;;;0.47;;
81801;SDS011;71199;52.490;5.448;2024-03-29T09:07:12;1.80;;;0.73;;
81801;SDS011;71199;52.490;5.448;2024-03-29T09:09:37;2.13;;;0.73;;
81801;SDS011;71199;52.490;5.448;2024-03-29T09:12:06;2.00;;;0.90;;
81801;SDS011;71199;52.490;5.448;2024-03-29T09:14:31;1.85;;;0.75;;
81801;SDS011;71199;52.490;5.448;2024-03-29T09:16:57;2.07;;;1.10;;
81801;SDS011;71199;52.490;5.448;2024-03-29T09:19:22;2.37;;;0.90;;
81801;SDS011;71199;52.490;5.448;2024-03-29T09:21:49;3.15;;;1.00;;
81801;SDS011;71199;52.490;5.448;2024-03-29T09:24:14;2.08;;;1.10;;
81801;SDS011;71199;52.490;5.448;2024-03-29T09:29:07;1.90;;;0.80;;
81801;SDS011;71199;52.490;5.448;2024-03-29T09:31:32;2.00;;;0.90;;
81801;SDS011;71199;52.490;5.448;2024-03-29T09:33:57;1.90;;;0.73;;
81801;SDS011;71199;52.490;5.448;2024-03-29T09:36:23;3.40;;;0.80;;
81801;SDS011;71199;52.490;5.448;2024-03-29T09:38:49;1.80;;;0.77;;
81801;SDS011;71199;52.490;5.448;2024-03-29T09:41:16;2.88;;;0.90;;
81801;SDS011;71199;52.490;5.448;2024-03-29T09:43:42;1.70;;;0.45;;
81801;SDS011;71199;52.490;5.448;2024-03-29T09:46:12;2.00;;;0.90;;
81801;SDS011;71199;52.490;5.448;2024-03-29T09:48:41;2.25;;;0.85;;
81801;SDS011;71199;52.490;5.448;2024-03-29T09:51:07;4.40;;;1.02;;
81801;SDS011;71199;52.490;5.448;2024-03-29T09:53:34;1.98;;;0.68;;
81801;SDS011;71199;52.490;5.448;2024-03-29T09:56:02;1.98;;;0.73;;
81801;SDS011;71199;52.490;5.448;2024-03-29T09:58:32;1.75;;;0.70;;
81801;SDS011;71199;52.490;5.448;2024-03-29T10:00:58;1.90;;;0.70;;
81801;SDS011;71199;52.490;5.448;2024-03-29T10:03:27;3.30;;;1.02;;
81801;SDS011;71199;52.490;5.448;2024-03-29T10:06:01;4.55;;;0.85;;
81801;SDS011;71199;52.490;5.448;2024-03-29T10:08:27;2.65;;;0.90;;
81801;SDS011;71199;52.490;5.448;2024-03-29T10:10:54;1.70;;;0.68;;
81801;SDS011;71199;52.490;5.448;2024-03-29T10:13:21;2.28;;;0.80;;
81801;SDS011;71199;52.490;5.448;2024-03-29T10:15:48;2.92;;;0.90;;
81801;SDS011;71199;52.490;5.448;2024-03-29T10:18:15;2.08;;;0.80;;
81801;SDS011;71199;52.490;5.448;2024-03-29T10:20:42;1.83;;;0.70;;
81801;SDS011;71199;52.490;5.448;2024-03-29T10:23:08;2.00;;;0.88;;
81801;SDS011;71199;52.490;5.448;2024-03-29T10:25:34;2.28;;;1.10;;
81801;SDS011;71199;52.490;5.448;2024-03-29T10:27:59;1.80;;;0.80;;
81801;SDS011;71199;52.490;5.448;2024-03-29T10:30:27;6.22;;;1.40;;
81801;SDS011;71199;52.490;5.448;2024-03-29T10:32:52;2.80;;;0.77;;
81801;SDS011;71199;52.490;5.448;2024-03-29T10:35:18;4.63;;;1.00;;
81801;SDS011;71199;52.490;5.448;2024-03-29T10:37:44;2.63;;;0.85;;
81801;SDS011;71199;52.490;5.448;2024-03-29T10:40:10;1.95;;;0.90;;
81801;SDS011;71199;52.490;5.448;2024-03-29T10:42:40;2.75;;;1.20;;
81801;SDS011;71199;52.490;5.448;2024-03-29T10:45:06;2.42;;;0.90;;
81801;SDS011;71199;52.490;5.448;2024-03-29T10:47:32;2.15;;;1.05;;
81801;SDS011;71199;52.490;5.448;2024-03-29T10:49:59;6.18;;;0.70;;
81801;SDS011;71199;52.490;5.448;2024-03-29T10:52:25;3.05;;;1.05;;
81801;SDS011;71199;52.490;5.448;2024-03-29T10:54:51;1.98;;;0.88;;
81801;SDS011;71199;52.490;5.448;2024-03-29T10:57:22;3.22;;;1.08;;
81801;SDS011;71199;52.490;5.448;2024-03-29T11:00:05;4.63;;;1.00;;
81801;SDS011;71199;52.490;5.448;2024-03-29T11:05:22;2.05;;;1.10;;
81801;SDS011;71199;52.490;5.448;2024-03-29T11:07:50;4.57;;;1.20;;
81801;SDS011;71199;52.490;5.448;2024-03-29T11:10:24;4.65;;;1.00;;
81801;SDS011;71199;52.490;5.448;2024-03-29T11:15:34;2.80;;;1.27;;
81801;SDS011;71199;52.490;5.448;2024-03-29T11:18:03;3.53;;;1.83;;
81801;SDS011;71199;52.490;5.448;2024-03-29T11:20:29;3.67;;;1.27;;
81801;SDS011;71199;52.490;5.448;2024-03-29T11:23:09;3.75;;;1.67;;
81801;SDS011;71199;52.490;5.448;2024-03-29T11:25:40;2.40;;;1.30;;
81801;SDS011;71199;52.490;5.448;2024-03-29T11:28:06;3.28;;;1.40;;
81801;SDS011;71199;52.490;5.448;2024-03-29T11:30:41;2.70;;;1.30;;
81801;SDS011;71199;52.490;5.448;2024-03-29T11:38:47;3.53;;;1.30;;
81801;SDS011;71199;52.490;5.448;2024-03-29T11:41:20;2.53;;;1.15;;
81801;SDS011;71199;52.490;5.448;2024-03-29T11:43:49;3.60;;;0.98;;
81801;SDS011;71199;52.490;5.448;2024-03-29T11:46:16;3.10;;;1.20;;
81801;SDS011;71199;52.490;5.448;2024-03-29T11:48:42;5.88;;;1.30;;
81801;SDS011;71199;52.490;5.448;2024-03-29T11:51:09;3.05;;;1.30;;
81801;SDS011;71199;52.490;5.448;2024-03-29T11:53:37;2.83;;;1.20;;
81801;SDS011;71199;52.490;5.448;2024-03-29T11:56:03;2.50;;;1.43;;
81801;SDS011;71199;52.490;5.448;2024-03-29T11:58:30;2.40;;;1.17;;
81801;SDS011;71199;52.490;5.448;2024-03-29T12:00:57;3.90;;;1.30;;
81801;SDS011;71199;52.490;5.448;2024-03-29T12:05:57;2.58;;;1.30;;
81801;SDS011;71199;52.490;5.448;2024-03-29T12:08:27;2.67;;;1.63;;
81801;SDS011;71199;52.490;5.448;2024-03-29T12:10:54;4.85;;;1.52;;
81801;SDS011;71199;52.490;5.448;2024-03-29T12:13:19;3.05;;;1.60;;
81801;SDS011;71199;52.490;5.448;2024-03-29T12:15:45;2.50;;;1.40;;
81801;SDS011;71199;52.490;5.448;2024-03-29T12:18:10;3.05;;;1.35;;
81801;SDS011;71199;52.490;5.448;2024-03-29T12:20:37;4.82;;;1.50;;
81801;SDS011;71199;52.490;5.448;2024-03-29T12:23:04;2.35;;;1.30;;
81801;SDS011;71199;52.490;5.448;2024-03-29T12:25:31;2.88;;;1.20;;
81801;SDS011;71199;52.490;5.448;2024-03-29T12:27:58;3.53;;;1.35;;
81801;SDS011;71199;52.490;5.448;2024-03-29T12:30:25;4.32;;;1.65;;
81801;SDS011;71199;52.490;5.448;2024-03-29T12:33:00;3.85;;;1.63;;
81801;SDS011;71199;52.490;5.448;2024-03-29T12:35:31;2.75;;;1.17;;
81801;SDS011;71199;52.490;5.448;2024-03-29T12:38:00;4.10;;;1.40;;
81801;SDS011;71199;52.490;5.448;2024-03-29T12:40:28;2.70;;;1.42;;
81801;SDS011;71199;52.490;5.448;2024-03-29T12:42:57;2.83;;;1.20;;
81801;SDS011;71199;52.490;5.448;2024-03-29T12:45:23;2.83;;;1.40;;
81801;SDS011;71199;52.490;5.448;2024-03-29T12:47:50;2.92;;;1.52;;
81801;SDS011;71199;52.490;5.448;2024-03-29T12:50:19;2.50;;;1.27;;
81801;SDS011;71199;52.490;5.448;2024-03-29T12:52:55;2.25;;;1.33;;
81801;SDS011;71199;52.490;5.448;2024-03-29T12:55:23;4.22;;;1.52;;
81801;SDS011;71199;52.490;5.448;2024-03-29T12:57:49;4.55;;;1.50;;
81801;SDS011;71199;52.490;5.448;2024-03-29T13:00:18;2.85;;;1.60;;
81801;SDS011;71199;52.490;5.448;2024-03-29T13:02:44;2.42;;;1.30;;
81801;SDS011;71199;52.490;5.448;2024-03-29T13:05:09;4.10;;;1.63;;
81801;SDS011;71199;52.490;5.448;2024-03-29T13:07:35;2.45;;;1.17;;
81801;SDS011;71199;52.490;5.448;2024-03-29T13:10:01;5.27;;;1.70;;
81801;SDS011;71199;52.490;5.448;2024-03-29T13:12:38;3.33;;;1.50;;
81801;SDS011;71199;52.490;5.448;2024-03-29T13:15:14;3.08;;;1.50;;
81801;SDS011;71199;52.490;5.448;2024-03-29T13:17:41;2.60;;;1.67;;
81801;SDS011;71199;52.490;5.448;2024-03-29T13:20:06;3.60;;;2.07;;
81801;SDS011;71199;52.490;5.448;2024-03-29T13:22:33;3.25;;;2.15;;
81801;SDS011;71199;52.490;5.448;2024-03-29T13:24:59;4.77;;;1.97;;
81801;SDS011;71199;52.490;5.448;2024-03-29T13:27:24;6.03;;;2.60;;
81801;SDS011;71199;52.490;5.448;2024-03-29T13:29:49;2.63;;;1.83;;
81801;SDS011;71199;52.490;5.448;2024-03-29T13:32:15;4.00;;;2.03;;
81801;SDS011;71199;52.490;5.448;2024-03-29T13:34:40;2.70;;;1.97;;
81801;SDS011;71199;52.490;5.448;2024-03-29T13:37:05;2.63;;;1.90;;
81801;SDS011;71199;52.490;5.448;2024-03-29T13:39:31;3.77;;;2.00;;
81801;SDS011;71199;52.490;5.448;2024-03-29T13:41:56;2.43;;;1.47;;
81801;SDS011;71199;52.490;5.448;2024-03-29T13:44:21;3.97;;;1.90;;
81801;SDS011;71199;52.490;5.448;2024-03-29T13:46:47;5.73;;;2.07;;
81801;SDS011;71199;52.490;5.448;2024-03-29T13:49:12;3.38;;;2.22;;
81801;SDS011;71199;52.490;5.448;2024-03-29T13:51:38;4.93;;;1.90;;
81801;SDS011;71199;52.490;5.448;2024-03-29T13:54:03;2.93;;;1.90;;
81801;SDS011;71199;52.490;5.448;2024-03-29T13:56:29;8.90;;;2.10;;
81801;SDS011;71199;52.490;5.448;2024-03-29T13:58:54;6.28;;;2.33;;
81801;SDS011;71199;52.490;5.448;2024-03-29T14:01:19;4.97;;;2.58;;
81801;SDS011;71199;52.490;5.448;2024-03-29T14:03:45;3.47;;;2.40;;
81801;SDS011;71199;52.490;5.448;2024-03-29T14:06:10;3.03;;;2.53;;
81801;SDS011;71199;52.490;5.448;2024-03-29T14:08:36;4.30;;;2.63;;
81801;SDS011;71199;52.490;5.448;2024-03-29T14:11:01;3.00;;;2.33;;
81801;SDS011;71199;52.490;5.448;2024-03-29T14:13:26;3.28;;;2.60;;
81801;SDS011;71199;52.490;5.448;2024-03-29T14:15:52;4.10;;;3.30;;
81801;SDS011;71199;52.490;5.448;2024-03-29T14:18:17;2.97;;;2.33;;
81801;SDS011;71199;52.490;5.448;2024-03-29T14:20:43;5.43;;;2.40;;
81801;SDS011;71199;52.490;5.448;2024-03-29T14:23:08;7.82;;;3.08;;
81801;SDS011;71199;52.490;5.448;2024-03-29T14:25:37;5.40;;;2.50;;
81801;SDS011;71199;52.490;5.448;2024-03-29T14:28:03;4.05;;;2.60;;
81801;SDS011;71199;52.490;5.448;2024-03-29T14:30:29;4.90;;;2.72;;
81801;SDS011;71199;52.490;5.448;2024-03-29T14:32:55;3.83;;;2.40;;
81801;SDS011;71199;52.490;5.448;2024-03-29T14:35:21;4.10;;;2.60;;
81801;SDS011;71199;52.490;5.448;2024-03-29T14:37:46;3.90;;;2.53;;
81801;SDS011;71199;52.490;5.448;2024-03-29T14:40:12;4.17;;;2.87;;
81801;SDS011;71199;52.490;5.448;2024-03-29T14:42:39;6.72;;;2.88;;
81801;SDS011;71199;52.490;5.448;2024-03-29T14:45:05;5.25;;;2.67;;
81801;SDS011;71199;52.490;5.448;2024-03-29T14:47:31;4.40;;;3.35;;
81801;SDS011;71199;52.490;5.448;2024-03-29T14:49:58;5.95;;;2.88;;
81801;SDS011;71199;52.490;5.448;2024-03-29T14:52:23;3.53;;;2.50;;
81801;SDS011;71199;52.490;5.448;2024-03-29T14:54:49;7.03;;;2.72;;
81801;SDS011;71199;52.490;5.448;2024-03-29T14:57:14;3.97;;;2.93;;
81801;SDS011;71199;52.490;5.448;2024-03-29T14:59:40;3.28;;;2.50;;